createdAt,value
2023-04-18T00:01:01.891Z,69.10
2023-04-18T00:03:30.271Z,69.49
2023-04-18T00:05:58.144Z,69.37
2023-04-18T00:08:25.466Z,69.17
2023-04-18T00:10:52.893Z,69.43
2023-04-18T00:13:20.244Z,69.82
2023-04-18T00:15:47.893Z,69.91
2023-04-18T00:18:18.352Z,69.44
2023-04-18T00:20:46.291Z,70.18
2023-04-18T00:23:16.477Z,70.48
2023-04-18T00:25:43.824Z,70.66
2023-04-18T00:28:11.120Z,70.23
2023-04-18T00:30:38.608Z,70.25
2023-04-18T00:33:06.383Z,70.13
2023-04-18T00:35:33.928Z,70.00
2023-04-18T00:38:01.245Z,70.52
2023-04-18T00:40:28.637Z,70.74
2023-04-18T00:42:56.077Z,70.52
2023-04-18T00:45:23.429Z,70.75
2023-04-18T00:47:51.009Z,70.59
2023-04-18T00:50:18.436Z,71.27
2023-04-18T00:52:45.782Z,71.59
2023-04-18T00:55:13.161Z,71.38
2023-04-18T00:57:40.540Z,71.86
2023-04-18T01:00:10.051Z,71.10
2023-04-18T01:02:37.985Z,71.23
2023-04-18T01:05:06.558Z,71.73
2023-04-18T01:07:34.826Z,70.94
2023-04-18T01:10:02.210Z,71.45
2023-04-18T01:12:29.695Z,72.27
2023-04-18T01:14:57.309Z,73.12
2023-04-18T01:17:24.700Z,72.99
2023-04-18T01:19:52.137Z,72.24
2023-04-18T01:22:19.914Z,73.27
2023-04-18T01:24:47.345Z,72.84
2023-04-18T01:27:17.196Z,73.42
2023-04-18T01:29:44.567Z,73.71
2023-04-18T01:32:11.884Z,73.66
2023-04-18T01:34:39.279Z,72.80
2023-04-18T01:37:06.650Z,72.95
2023-04-18T01:39:33.999Z,72.64
2023-04-18T01:42:02.226Z,72.09
2023-04-18T01:44:29.627Z,72.44
2023-04-18T01:46:57.128Z,72.20
2023-04-18T01:49:25.494Z,71.69
2023-04-18T01:51:52.862Z,71.69
2023-04-18T01:54:22.063Z,71.85
2023-04-18T01:56:49.452Z,71.84
2023-04-18T01:59:17.153Z,72.38
2023-04-18T02:01:45.232Z,72.31
2023-04-18T02:04:12.917Z,72.63
2023-04-18T02:06:40.629Z,72.68
2023-04-18T02:09:07.953Z,72.19
2023-04-18T02:11:35.344Z,71.99
2023-04-18T02:14:03.802Z,71.47
2023-04-18T02:16:31.522Z,71.88
2023-04-18T02:18:58.851Z,72.36
2023-04-18T02:21:26.217Z,71.86
2023-04-18T02:23:53.639Z,71.78
2023-04-18T02:26:23.148Z,71.87
2023-04-18T02:28:50.467Z,71.11
2023-04-18T02:31:17.817Z,71.20
2023-04-18T02:33:46.452Z,72.36
2023-04-18T02:36:14.067Z,72.37
2023-04-18T02:38:43.057Z,71.95
2023-04-18T02:41:15.304Z,71.12
2023-04-18T02:43:42.749Z,71.39
2023-04-18T02:46:10.309Z,72.23
2023-04-18T02:48:37.706Z,72.64
2023-04-18T02:51:06.393Z,71.45
2023-04-18T02:53:35.687Z,71.32
2023-04-18T02:56:03.139Z,71.90
2023-04-18T02:58:50.482Z,72.05
2023-04-18T03:01:42.491Z,71.48
2023-04-18T03:04:13.175Z,70.85
2023-04-18T03:06:47.867Z,71.17
2023-04-18T03:09:16.815Z,71.26
2023-04-18T03:11:48.536Z,70.57
2023-04-18T03:14:18.566Z,70.50
2023-04-18T03:16:54.678Z,70.15
2023-04-18T03:19:26.575Z,70.32
2023-04-18T03:21:55.332Z,69.90
2023-04-18T03:24:23.020Z,70.26
2023-04-18T03:26:53.015Z,70.09
2023-04-18T03:29:23.767Z,70.53
2023-04-18T03:31:51.949Z,70.79
2023-04-18T03:34:19.479Z,71.02
2023-04-18T03:36:48.220Z,70.88
2023-04-18T03:39:15.995Z,70.67
2023-04-18T03:41:43.359Z,71.26
2023-04-18T03:44:11.364Z,71.70
2023-04-18T03:46:41.392Z,71.87
2023-04-18T03:49:10.377Z,72.58
2023-04-18T03:51:47.732Z,71.87
2023-04-18T03:54:18.578Z,72.24
2023-04-18T03:56:46.028Z,72.13
2023-04-18T03:59:15.522Z,71.86
2023-04-18T04:01:46.726Z,72.05
2023-04-18T04:04:15.691Z,73.09
2023-04-18T04:06:43.481Z,72.82
2023-04-18T04:09:11.124Z,71.30
2023-04-18T04:11:39.833Z,71.16
2023-04-18T04:14:10.033Z,70.79
2023-04-18T04:16:42.373Z,70.44
2023-04-18T04:19:12.077Z,69.42
2023-04-18T04:21:46.224Z,69.43
2023-04-18T04:24:16.044Z,69.00
2023-04-18T04:26:46.763Z,68.99
2023-04-18T04:29:17.975Z,69.29
2023-04-18T04:31:47.418Z,69.35
2023-04-18T04:34:21.698Z,68.85
2023-04-18T04:36:49.475Z,68.70
2023-04-18T04:39:17.531Z,68.32
2023-04-18T04:42:04.676Z,68.46
2023-04-18T04:44:41.805Z,68.29
2023-04-18T04:47:09.796Z,68.44
2023-04-18T04:49:39.243Z,68.23
2023-04-18T04:52:06.631Z,68.28
2023-04-18T04:54:34.178Z,67.83
2023-04-18T04:57:02.310Z,68.09
2023-04-18T04:59:29.720Z,68.86
2023-04-18T05:01:57.599Z,68.89
2023-04-18T05:04:25.995Z,68.19
2023-04-18T05:06:53.548Z,67.92
2023-04-18T05:09:21.034Z,67.29
2023-04-18T05:11:49.535Z,67.25
2023-04-18T05:14:17.750Z,67.27
2023-04-18T05:16:45.166Z,66.82
2023-04-18T05:19:12.522Z,66.93
2023-04-18T05:21:40.025Z,66.60
2023-04-18T05:24:08.058Z,66.53
2023-04-18T05:26:41.503Z,66.82
2023-04-18T05:29:15.348Z,66.95
2023-04-18T05:31:42.683Z,67.03
2023-04-18T05:34:13.751Z,66.15
2023-04-18T05:37:45.292Z,66.82
2023-04-18T05:40:13.558Z,66.36
2023-04-18T05:42:52.006Z,65.67
2023-04-18T05:45:20.467Z,65.08
2023-04-18T05:47:48.385Z,65.36
2023-04-18T05:50:15.914Z,63.96
2023-04-18T05:52:43.460Z,63.46
2023-04-18T05:55:11.187Z,63.20
2023-04-18T05:57:38.609Z,62.89
2023-04-18T06:00:07.132Z,61.54
2023-04-18T06:02:39.869Z,61.88
2023-04-18T06:05:08.137Z,61.65
2023-04-18T06:07:36.263Z,60.84
2023-04-18T06:10:11.160Z,60.67
2023-04-18T06:12:38.703Z,61.44
2023-04-18T06:15:06.713Z,60.74
2023-04-18T06:17:35.061Z,60.36
2023-04-18T06:20:03.933Z,59.40
2023-04-18T06:22:31.400Z,58.60
2023-04-18T06:24:58.897Z,58.82
2023-04-18T06:27:31.395Z,59.04
2023-04-18T06:29:59.358Z,58.15
2023-04-18T06:32:26.990Z,58.09
2023-04-18T06:34:54.386Z,57.79
2023-04-18T06:37:21.880Z,57.85
2023-04-18T06:39:50.520Z,55.92
2023-04-18T06:42:19.161Z,56.00
2023-04-18T06:44:51.519Z,55.45
2023-04-18T06:47:19.056Z,54.70
2023-04-18T06:49:46.417Z,54.67
2023-04-18T06:52:13.776Z,54.62
2023-04-18T06:54:41.187Z,54.04
2023-04-18T06:57:08.944Z,54.28
2023-04-18T06:59:41.063Z,53.88
2023-04-18T07:02:08.497Z,54.08
2023-04-18T07:04:36.019Z,52.58
2023-04-18T07:07:05.306Z,50.39
2023-04-18T07:09:32.806Z,48.67
2023-04-18T07:12:00.750Z,48.76
2023-04-18T07:14:28.570Z,48.11
2023-04-18T07:16:57.730Z,47.58
2023-04-18T07:19:25.169Z,47.94
2023-04-18T07:21:52.628Z,47.72
2023-04-18T07:24:20.078Z,48.22
2023-04-18T07:26:47.502Z,47.77
2023-04-18T07:29:14.931Z,46.94
2023-04-18T07:31:42.408Z,47.34
2023-04-18T07:34:09.844Z,48.39
2023-04-18T07:36:37.418Z,47.55
2023-04-18T07:39:04.754Z,47.69
2023-04-18T07:41:32.901Z,47.06
2023-04-18T07:44:01.358Z,46.46
2023-04-18T07:46:29.147Z,46.13
2023-04-18T07:49:04.611Z,46.22
2023-04-18T07:51:32.050Z,46.24
2023-04-18T07:53:59.640Z,45.32
2023-04-18T07:56:35.972Z,45.83
2023-04-18T07:59:03.434Z,45.97
2023-04-18T08:01:31.058Z,45.85
2023-04-18T08:08:26.690Z,46.64
2023-04-18T08:10:54.600Z,46.40
2023-04-18T08:21:11.837Z,47.46
2023-04-18T08:23:39.431Z,48.07
2023-04-18T08:26:07.087Z,47.46
2023-04-18T08:28:34.576Z,48.11
2023-04-18T08:31:01.974Z,47.70
2023-04-18T08:33:32.664Z,48.04
2023-04-18T08:36:00.009Z,47.55
2023-04-18T08:39:08.620Z,46.85
2023-04-18T08:44:38.300Z,46.04
2023-04-18T08:47:08.911Z,46.35
2023-04-18T08:49:36.347Z,47.25
2023-04-18T08:52:06.295Z,47.13
2023-04-18T08:54:33.837Z,46.87
2023-04-18T08:57:16.444Z,47.74
2023-04-18T08:59:46.354Z,47.03
2023-04-18T09:02:15.741Z,47.01
2023-04-18T09:04:45.334Z,46.87
2023-04-18T09:07:14.101Z,47.20
2023-04-18T09:09:45.980Z,46.24
2023-04-18T09:12:18.403Z,46.44
2023-04-18T09:14:47.149Z,45.92
2023-04-18T09:17:33.332Z,45.75
2023-04-18T09:20:01.453Z,45.01
2023-04-18T09:22:50.759Z,45.33
2023-04-18T09:25:46.639Z,45.20
2023-04-18T09:28:30.574Z,44.86
2023-04-18T09:30:59.343Z,44.29
2023-04-18T09:33:33.726Z,43.13
2023-04-18T09:36:25.151Z,43.68
2023-04-18T09:38:55.331Z,43.05
2023-04-18T09:41:24.076Z,42.07
2023-04-18T09:44:07.674Z,41.83
2023-04-18T09:46:35.216Z,41.42
2023-04-18T09:49:02.669Z,40.39
2023-04-18T09:51:30.065Z,41.00
2023-04-18T09:53:57.402Z,41.38
2023-04-18T09:56:28.163Z,39.04
2023-04-18T09:58:57.215Z,38.32
2023-04-18T10:01:30.879Z,39.67
2023-04-18T10:03:58.474Z,40.27
2023-04-18T10:06:27.491Z,40.43
2023-04-18T10:08:55.107Z,39.98
2023-04-18T10:11:23.717Z,39.89
2023-04-18T10:13:51.285Z,40.44
2023-04-18T10:16:18.704Z,40.27
2023-04-18T10:18:46.352Z,40.15
2023-04-18T10:21:13.727Z,40.25
2023-04-18T10:23:49.108Z,39.42
2023-04-18T10:26:16.548Z,38.47
2023-04-18T10:29:01.019Z,38.64
2023-04-18T10:31:29.668Z,38.20
2023-04-18T10:36:30.668Z,39.69
2023-04-18T10:39:21.263Z,38.93
2023-04-18T10:41:50.598Z,38.37
2023-04-18T10:44:19.740Z,37.94
2023-04-18T10:46:53.342Z,37.81
2023-04-18T10:49:30.250Z,37.79
2023-04-18T10:52:00.676Z,36.51
2023-04-18T10:54:50.133Z,35.61
2023-04-18T10:57:21.337Z,35.36
2023-04-18T10:59:52.192Z,35.94
2023-04-18T11:02:30.397Z,36.76
2023-04-18T11:05:07.094Z,36.17
2023-04-18T11:07:37.495Z,36.05
2023-04-18T11:10:05.654Z,36.09
2023-04-18T11:12:34.551Z,35.59
2023-04-18T11:15:09.835Z,35.91
2023-04-18T11:17:39.997Z,35.57
2023-04-18T11:20:17.200Z,36.03
2023-04-18T11:22:48.065Z,33.45
2023-04-18T11:25:16.466Z,32.47
2023-04-18T11:27:45.015Z,33.60
2023-04-18T11:30:13.480Z,33.69
2023-04-18T11:32:41.091Z,33.86
2023-04-18T11:35:09.735Z,33.44
2023-04-18T11:37:50.067Z,34.35
2023-04-18T11:40:17.627Z,34.61
2023-04-18T11:42:45.078Z,34.25
2023-04-18T11:45:13.274Z,33.77
2023-04-18T11:47:42.138Z,35.00
2023-04-18T11:50:10.970Z,35.13
2023-04-18T11:52:40.155Z,35.45
2023-04-18T11:55:17.728Z,35.41
2023-04-18T11:57:55.625Z,35.06
2023-04-18T12:00:37.236Z,35.32
2023-04-18T12:03:18.016Z,35.09
2023-04-18T12:05:45.921Z,36.10
2023-04-18T12:08:25.187Z,37.28
2023-04-18T12:10:53.601Z,36.56
2023-04-18T12:13:25.850Z,36.59
2023-04-18T12:15:54.255Z,36.85
2023-04-18T12:18:25.453Z,36.71
2023-04-18T12:20:54.549Z,36.69
2023-04-18T12:23:35.987Z,36.62
2023-04-18T12:26:04.538Z,36.26
2023-04-18T12:28:32.168Z,35.61
2023-04-18T12:30:59.662Z,36.11
2023-04-18T12:33:27.028Z,35.94
2023-04-18T12:35:54.389Z,35.78
2023-04-18T12:38:22.394Z,35.73
2023-04-18T12:40:50.340Z,35.83
2023-04-18T12:43:18.172Z,35.95
2023-04-18T12:45:45.939Z,35.19
2023-04-18T12:48:13.389Z,35.40
2023-04-18T12:50:40.833Z,33.47
2023-04-18T12:53:08.178Z,32.61
2023-04-18T12:55:36.069Z,31.68
2023-04-18T12:58:03.526Z,31.67
2023-04-18T13:00:31.513Z,32.94
2023-04-18T13:02:59.128Z,33.32
2023-04-18T13:05:29.851Z,34.12
2023-04-18T13:08:15.222Z,34.14
2023-04-18T13:10:44.143Z,34.05
2023-04-18T13:13:11.445Z,34.51
2023-04-18T13:15:39.064Z,34.73
2023-04-18T13:18:06.820Z,34.69
2023-04-18T13:20:34.415Z,34.96
2023-04-18T13:23:04.646Z,35.45
2023-04-18T13:25:32.052Z,34.65
2023-04-18T13:28:01.081Z,34.61
2023-04-18T13:30:28.657Z,34.45
2023-04-18T13:32:56.867Z,33.91
2023-04-18T13:35:24.416Z,33.45
2023-04-18T13:37:51.830Z,32.49
2023-04-18T13:40:19.270Z,31.47
2023-04-18T13:42:46.551Z,30.61
2023-04-18T13:45:13.866Z,30.36
2023-04-18T13:47:41.346Z,30.41
2023-04-18T13:50:09.352Z,29.73
2023-04-18T13:52:36.735Z,29.49
2023-04-18T13:55:04.237Z,29.25
2023-04-18T13:57:34.682Z,29.25
2023-04-18T14:00:02.511Z,29.40
2023-04-18T14:02:39.444Z,27.60
2023-04-18T14:05:07.431Z,28.73
2023-04-18T14:07:35.627Z,29.86
2023-04-18T14:10:03.007Z,30.78
2023-04-18T14:12:31.402Z,30.99
2023-04-18T14:14:58.750Z,29.81
2023-04-18T14:17:26.181Z,27.56
2023-04-18T14:19:53.749Z,25.57
2023-04-18T14:22:21.215Z,23.92
2023-04-18T14:24:49.160Z,24.30
2023-04-18T14:27:16.854Z,25.08
2023-04-18T14:29:44.243Z,26.98
2023-04-18T14:32:12.304Z,28.06
2023-04-18T14:34:39.744Z,28.34
2023-04-18T14:37:07.102Z,29.18
2023-04-18T14:39:34.594Z,28.34
2023-04-18T14:42:02.153Z,26.31
2023-04-18T14:44:30.236Z,27.25
2023-04-18T14:46:57.534Z,28.57
2023-04-18T14:49:24.901Z,29.88
2023-04-18T14:51:52.407Z,30.92
2023-04-18T14:54:19.815Z,30.99
2023-04-18T14:56:47.157Z,30.34
2023-04-18T14:59:16.611Z,30.10
2023-04-18T15:01:44.388Z,27.83
2023-04-18T15:04:11.883Z,28.67
2023-04-18T15:06:39.467Z,29.65
2023-04-18T15:09:07.108Z,30.18
2023-04-18T15:11:34.419Z,30.43
2023-04-18T15:14:01.800Z,31.67
2023-04-18T15:16:29.253Z,31.54
2023-04-18T15:18:56.582Z,30.26
2023-04-18T15:21:27.284Z,30.53
2023-04-18T15:23:54.602Z,30.25
2023-04-18T15:26:21.964Z,29.88
2023-04-18T15:28:49.368Z,30.01
2023-04-18T15:31:16.765Z,30.71
2023-04-18T15:33:44.268Z,30.81
2023-04-18T15:36:11.709Z,31.00
2023-04-18T15:38:40.035Z,31.21
2023-04-18T15:41:07.416Z,32.12
2023-04-18T15:43:34.872Z,32.23
2023-04-18T15:46:02.285Z,32.67
2023-04-18T15:48:34.001Z,33.39
2023-04-18T15:51:01.543Z,33.85
2023-04-18T15:53:28.961Z,33.22
2023-04-18T15:55:57.109Z,33.72
2023-04-18T15:58:27.790Z,33.71
2023-04-18T16:00:55.228Z,34.24
2023-04-18T16:03:23.923Z,34.19
2023-04-18T16:05:51.565Z,34.41
2023-04-18T16:08:18.939Z,34.30
2023-04-18T16:10:46.281Z,34.87
2023-04-18T16:13:14.078Z,34.88
2023-04-18T16:15:42.129Z,35.59
2023-04-18T16:18:09.732Z,35.68
2023-04-18T16:20:37.104Z,35.90
2023-04-18T16:23:04.450Z,36.14
2023-04-18T16:25:31.832Z,36.43
2023-04-18T16:27:59.164Z,36.61
2023-04-18T16:30:26.498Z,36.88
2023-04-18T16:32:54.460Z,37.23
2023-04-18T16:35:21.909Z,37.56
2023-04-18T16:37:49.306Z,37.89
2023-04-18T16:40:16.692Z,38.11
2023-04-18T16:42:44.078Z,38.77
2023-04-18T16:45:11.447Z,38.81
2023-04-18T16:47:38.862Z,38.76
2023-04-18T16:50:07.423Z,38.79
2023-04-18T16:52:34.682Z,39.60
2023-04-18T16:55:02.119Z,39.72
2023-04-18T16:57:29.516Z,39.39
2023-04-18T16:59:58.395Z,39.17
2023-04-18T17:02:25.909Z,38.58
2023-04-18T17:04:53.384Z,38.98
2023-04-18T17:07:20.697Z,39.28
2023-04-18T17:09:48.024Z,38.74
2023-04-18T17:12:15.676Z,38.92
2023-04-18T17:14:43.074Z,38.75
2023-04-18T17:17:10.621Z,38.61
2023-04-18T17:19:37.944Z,37.19
2023-04-18T17:22:05.551Z,37.24
2023-04-18T17:24:32.864Z,37.50
2023-04-18T17:27:01.330Z,36.98
2023-04-18T17:29:28.722Z,36.94
2023-04-18T17:31:56.441Z,37.57
2023-04-18T17:34:23.868Z,37.27
2023-04-18T17:36:51.243Z,37.92
2023-04-18T17:39:18.623Z,38.24
2023-04-18T17:41:46.797Z,37.63
2023-04-18T17:44:14.172Z,37.94
2023-04-18T17:46:41.624Z,37.87
2023-04-18T17:49:09.055Z,37.98
2023-04-18T17:51:36.427Z,38.56
2023-04-18T17:54:05.163Z,38.38
2023-04-18T17:56:32.554Z,39.32
2023-04-18T17:58:59.853Z,39.10
2023-04-18T18:01:30.216Z,39.04
2023-04-18T18:03:57.754Z,39.25
2023-04-18T18:06:25.090Z,39.62
2023-04-18T18:08:52.324Z,39.85
2023-04-18T18:11:19.730Z,39.95
2023-04-18T18:13:47.022Z,39.77
2023-04-18T18:16:14.397Z,40.04
2023-04-18T18:18:41.708Z,40.47
2023-04-18T18:21:09.073Z,40.93
2023-04-18T18:23:36.416Z,41.24
2023-04-18T18:26:04.324Z,40.98
2023-04-18T18:28:31.671Z,41.45
2023-04-18T18:30:59.205Z,41.66
2023-04-18T18:33:26.562Z,41.98
2023-04-18T18:35:54.915Z,42.23
2023-04-18T18:38:23.146Z,42.46
2023-04-18T18:40:50.572Z,42.45
2023-04-18T18:43:17.885Z,42.73
2023-04-18T18:45:45.223Z,42.77
2023-04-18T18:48:12.560Z,42.72
2023-04-18T18:50:41.912Z,42.90
2023-04-18T18:53:09.310Z,43.14
2023-04-18T18:55:36.679Z,43.23
2023-04-18T18:58:03.960Z,43.36
2023-04-18T19:00:31.304Z,43.24
2023-04-18T19:02:58.677Z,43.33
2023-04-18T19:05:26.225Z,43.33
2023-04-18T19:07:53.602Z,43.68
2023-04-18T19:10:21.148Z,43.91
2023-04-18T19:12:48.440Z,44.04
2023-04-18T19:15:15.724Z,44.20
2023-04-18T19:17:43.099Z,44.21
2023-04-18T19:20:10.795Z,44.38
2023-04-18T19:22:38.177Z,44.89
2023-04-18T19:25:06.124Z,44.83
2023-04-18T19:27:33.432Z,44.58
2023-04-18T19:30:00.853Z,44.68
2023-04-18T19:32:30.081Z,44.63
2023-04-18T19:34:57.503Z,44.46
2023-04-18T19:37:26.908Z,44.35
2023-04-18T19:39:54.177Z,44.49
2023-04-18T19:42:21.531Z,44.70
2023-04-18T19:44:48.860Z,44.75
2023-04-18T19:47:16.145Z,44.69
2023-04-18T19:49:44.397Z,45.15
2023-04-18T19:52:11.747Z,45.01
2023-04-18T19:54:39.144Z,44.98
2023-04-18T19:57:06.487Z,45.36
2023-04-18T19:59:33.805Z,45.74
2023-04-18T20:02:05.012Z,45.27
2023-04-18T20:04:34.288Z,45.85
2023-04-18T20:07:02.547Z,45.77
2023-04-18T20:09:29.920Z,45.95
2023-04-18T20:12:00.459Z,46.37
2023-04-18T20:14:28.843Z,45.92
2023-04-18T20:16:56.746Z,46.24
2023-04-18T20:19:26.974Z,46.18
2023-04-18T20:21:54.390Z,46.21
2023-04-18T20:24:21.997Z,45.78
2023-04-18T20:26:49.540Z,46.31
2023-04-18T20:29:16.984Z,46.01
2023-04-18T20:31:44.302Z,46.02
2023-04-18T20:34:11.626Z,45.88
2023-04-18T20:36:41.931Z,46.00
2023-04-18T20:39:09.403Z,46.32
2023-04-18T20:41:37.115Z,46.59
2023-04-18T20:44:09.146Z,46.61
2023-04-18T20:46:36.549Z,46.73
2023-04-18T20:49:03.908Z,46.65
2023-04-18T20:51:32.046Z,46.65
2023-04-18T20:53:59.344Z,46.70
2023-04-18T20:56:26.611Z,46.71
2023-04-18T20:58:53.999Z,46.50
2023-04-18T21:01:22.867Z,46.63
2023-04-18T21:03:50.333Z,46.52
2023-04-18T21:06:21.938Z,46.97
2023-04-18T21:08:49.290Z,46.55
2023-04-18T21:11:16.595Z,46.89
2023-04-18T21:13:43.856Z,46.94
2023-04-18T21:16:11.330Z,47.11
2023-04-18T21:18:38.735Z,47.33
2023-04-18T21:21:06.185Z,47.18
2023-04-18T21:23:33.483Z,47.22
2023-04-18T21:26:00.838Z,47.10
2023-04-18T21:28:28.139Z,47.36
2023-04-18T21:30:55.421Z,47.56
2023-04-18T21:33:24.590Z,47.38
2023-04-18T21:35:51.865Z,47.18
2023-04-18T21:38:19.121Z,47.10
2023-04-18T21:40:46.376Z,47.20
2023-04-18T21:43:13.768Z,47.35
2023-04-18T21:45:41.135Z,47.27
2023-04-18T21:48:09.356Z,47.38
2023-04-18T21:50:36.615Z,47.69
2023-04-18T21:53:03.890Z,47.66
2023-04-18T21:55:31.215Z,47.85
2023-04-18T21:57:58.586Z,48.13
2023-04-18T22:00:25.922Z,48.02
2023-04-18T22:02:53.442Z,48.07
2023-04-18T22:05:20.935Z,47.62
2023-04-18T22:07:57.355Z,48.24
2023-04-18T22:10:25.682Z,48.42
2023-04-18T22:12:56.018Z,48.26
2023-04-18T22:15:24.412Z,48.51
2023-04-18T22:17:51.912Z,48.31
2023-04-18T22:20:19.238Z,48.60
2023-04-18T22:22:46.589Z,48.97
2023-04-18T22:25:14.042Z,49.09
2023-04-18T22:27:42.682Z,49.23
2023-04-18T22:30:10.496Z,49.12
2023-04-18T22:32:37.968Z,49.58
2023-04-18T22:35:06.699Z,49.91
2023-04-18T22:37:34.092Z,49.35
2023-04-18T22:40:01.652Z,49.91
2023-04-18T22:42:30.018Z,49.87
2023-04-18T22:44:57.627Z,50.37
2023-04-18T22:47:24.971Z,50.61
2023-04-18T22:49:53.068Z,50.80
2023-04-18T22:52:20.423Z,51.30
2023-04-18T22:54:47.684Z,51.78
2023-04-18T22:57:14.932Z,52.00
2023-04-18T22:59:42.244Z,52.57
2023-04-18T23:02:10.556Z,52.17
2023-04-18T23:04:38.116Z,52.68
2023-04-18T23:07:05.476Z,53.28
2023-04-18T23:09:33.174Z,53.40
2023-04-18T23:12:00.437Z,53.80
2023-04-18T23:14:28.235Z,53.76
2023-04-18T23:16:55.623Z,54.25
2023-04-18T23:19:22.940Z,54.23
2023-04-18T23:21:50.370Z,54.29
2023-04-18T23:24:17.640Z,54.67
2023-04-18T23:26:44.990Z,54.69
2023-04-18T23:29:12.238Z,55.06
2023-04-18T23:31:39.502Z,54.90
2023-04-18T23:34:06.793Z,55.47
2023-04-18T23:36:34.191Z,55.34
2023-04-18T23:39:02.176Z,55.52
2023-04-18T23:41:29.464Z,56.06
2023-04-18T23:43:56.760Z,55.88
2023-04-18T23:46:24.092Z,55.77
2023-04-18T23:48:52.931Z,55.86
2023-04-18T23:51:21.601Z,55.62
2023-04-18T23:53:48.897Z,55.60
2023-04-18T23:56:16.226Z,55.98
2023-04-18T23:58:43.551Z,56.08
